Time;durP1;ratioP1;P1;durP2;ratioP2;P2;SDS_P1;SDS_P2;PMS_P1;PMS_P2;Temp;Humidity;BMP_temperature;BMP_pressure;BME280_temperature;BME280_humidity;BME280_pressure;Samples;Min_cycle;Max_cycle;Signal;HPM_P1;HPM_P2
2022/01/23 00:02:10;;;;;;;88.90;27.30;;;;;;;;;;5069013;28;20208;-87
2022/01/23 00:04:38;;;;;;;62.30;21.00;;;6.50;99.90;;;;;;5077286;28;20462;-85
2022/01/23 00:07:08;;;;;;;72.87;24.33;;;6.50;99.90;;;;;;5086059;28;20293;-87
2022/01/23 00:09:35;;;;;;;88.87;30.10;;;6.50;99.90;;;;;;5069053;28;20212;-88
2022/01/23 00:12:06;;;;;;;81.77;26.87;;;6.50;99.90;;;;;;5069452;28;20258;-86
2022/01/23 00:17:20;;;;;;;74.07;25.70;;;6.50;99.90;;;;;;5067769;28;20268;-87
2022/01/23 00:19:49;;;;;;;78.57;22.47;;;6.50;99.90;;;;;;5069200;28;20200;-87
2022/01/23 00:22:18;;;;;;;95.63;26.73;;;6.50;99.90;;;;;;5067956;28;20293;-87
2022/01/23 00:30:29;;;;;;;76.70;25.80;;;6.60;99.90;;;;;;5067702;28;20204;-87
2022/01/23 00:32:58;;;;;;;71.20;23.20;;;6.60;99.90;;;;;;5066545;28;20204;-86
2022/01/23 00:35:26;;;;;;;75.47;21.10;;;6.60;99.90;;;;;;5060326;28;20214;-87
2022/01/23 00:37:54;;;;;;;85.77;23.80;;;6.60;99.90;;;;;;5094188;28;20248;-86
2022/01/23 00:40:22;;;;;;;88.33;26.87;;;7.40;99.90;;;;;;5089419;28;20212;-84
2022/01/23 00:42:49;;;;;;;96.13;29.40;;;6.60;99.90;;;;;;5069435;28;20212;-86
2022/01/23 00:48:06;;;;;;;97.33;29.77;;;6.50;99.90;;;;;;5067929;28;20756;-87
2022/01/23 00:50:35;;;;;;;84.60;27.20;;;6.50;99.90;;;;;;5067823;28;20586;-86
2022/01/23 00:53:04;;;;;;;87.33;29.43;;;6.60;99.90;;;;;;5066886;28;20204;-86
2022/01/23 00:55:31;;;;;;;74.40;22.23;;;8.20;99.90;;;;;;5067941;28;20212;-87
2022/01/23 00:57:58;;;;;;;78.47;25.83;;;6.60;99.90;;;;;;5063988;28;20201;-87
2022/01/23 01:00:26;;;;;;;92.53;30.07;;;6.50;99.90;;;;;;5065751;28;20239;-86
2022/01/23 01:02:53;;;;;;;90.57;30.80;;;6.50;99.90;;;;;;5068039;28;20209;-86
2022/01/23 01:05:21;;;;;;;84.17;30.10;;;6.50;99.90;;;;;;5062539;28;20196;-87
2022/01/23 01:07:48;;;;;;;80.30;29.77;;;6.50;99.90;;;;;;5066861;28;20221;-87
2022/01/23 01:10:21;;;;;;;86.57;29.17;;;6.50;99.90;;;;;;5067156;28;20868;-88
2022/01/23 01:12:51;;;;;;;91.47;30.63;;;6.50;99.90;;;;;;5065900;28;20212;-87
2022/01/23 01:31:58;;;;;;;134.03;37.73;;;6.60;99.90;;;;;;5060012;28;20597;-87
2022/01/23 01:34:35;;;;;;;78.20;30.20;;;6.60;99.90;;;;;;5083321;28;20287;-87
2022/01/23 01:37:03;;;;;;;80.13;29.30;;;6.60;99.90;;;;;;5067024;28;20213;-87
2022/01/23 01:39:30;;;;;;;88.30;29.13;;;6.60;99.90;;;;;;5066239;28;20212;-87
2022/01/23 01:41:59;;;;;;;86.70;30.60;;;6.60;99.90;;;;;;5065182;28;20267;-87
2022/01/23 01:44:29;;;;;;;85.47;28.70;;;6.60;99.90;;;;;;5057931;28;20376;-86
2022/01/23 01:47:00;;;;;;;93.80;31.40;;;6.60;99.90;;;;;;5066686;28;20225;-87
2022/01/23 01:49:34;;;;;;;105.20;33.37;;;6.60;99.90;;;;;;5065039;28;20204;-88
2022/01/23 01:52:04;;;;;;;95.33;30.70;;;6.50;99.90;;;;;;5066442;28;20636;-87
2022/01/23 01:54:32;;;;;;;86.87;28.93;;;6.60;99.90;;;;;;5066310;28;20192;-87
2022/01/23 01:57:10;;;;;;;69.90;26.20;;;6.60;99.90;;;;;;5092658;28;20216;-84
2022/01/23 02:00:00;;;;;;;72.67;22.70;;;6.60;99.90;;;;;;5066844;28;20217;-87
2022/01/23 02:03:18;;;;;;;83.90;22.80;;;7.20;99.90;;;;;;5061555;28;20712;-86
2022/01/23 02:08:53;;;;;;;85.07;28.50;;;6.50;99.90;;;;;;5073232;28;20217;-87
2022/01/23 02:11:34;;;;;;;82.40;28.63;;;6.50;99.90;;;;;;5078772;28;20192;-86
2022/01/23 02:14:15;;;;;;;72.53;25.27;;;6.60;99.90;;;;;;5085395;28;20221;-87
2022/01/23 02:17:13;;;;;;;76.33;27.67;;;6.50;99.90;;;;;;5091301;28;20228;-85
2022/01/23 02:23:00;;;;;;;92.27;31.57;;;6.80;99.90;;;;;;5069241;28;20250;-86
2022/01/23 02:50:46;;;;;;;92.73;30.17;;;6.40;99.90;;;;;;5077402;28;20200;-87
2022/01/23 02:53:33;;;;;;;66.90;20.47;;;6.50;99.90;;;;;;5063519;28;20301;-86
2022/01/23 02:56:07;;;;;;;87.50;27.30;;;6.40;99.90;;;;;;5066612;28;20315;-87
2022/01/23 02:58:46;;;;;;;87.27;28.80;;;6.40;99.90;;;;;;5067423;28;20288;-86
2022/01/23 03:01:16;;;;;;;96.83;31.73;;;6.40;99.90;;;;;;5065519;28;20672;-86
2022/01/23 03:04:13;;;;;;;88.83;27.00;;;6.40;99.90;;;;;;5084099;28;20208;-85
2022/01/23 03:07:13;;;;;;;84.53;30.43;;;6.40;99.90;;;;;;5083856;28;20277;-87
2022/01/23 03:09:57;;;;;;;96.33;31.17;;;6.40;99.90;;;;;;5065575;28;20701;-88
2022/01/23 03:15:13;;;;;;;100.53;31.60;;;6.40;99.90;;;;;;5064426;28;20216;-87
2022/01/23 03:29:01;;;;;;;102.07;33.67;;;6.50;99.90;;;;;;5068634;28;20220;-88
2022/01/23 03:31:30;;;;;;;80.83;29.70;;;6.50;99.90;;;;;;5075137;28;20809;-87
2022/01/23 03:33:58;;;;;;;99.43;32.70;;;6.50;99.90;;;;;;5069082;28;20248;-87
2022/01/23 03:36:25;;;;;;;88.60;31.20;;;6.50;99.90;;;;;;5062502;28;20320;-87
2022/01/23 03:38:52;;;;;;;86.43;30.73;;;6.60;99.90;;;;;;5069096;28;20416;-87
2022/01/23 03:41:19;;;;;;;101.10;33.47;;;6.60;99.90;;;;;;5069755;28;20206;-87
2022/01/23 03:43:47;;;;;;;77.93;30.10;;;6.60;99.90;;;;;;5067926;28;20258;-87
2022/01/23 03:46:23;;;;;;;92.90;31.43;;;6.60;99.90;;;;;;5069229;28;20229;-87
2022/01/23 03:51:39;;;;;;;95.80;32.60;;;6.60;99.90;;;;;;5062552;28;20212;-86
2022/01/23 03:54:06;;;;;;;72.93;27.97;;;6.90;99.90;;;;;;5068641;28;20738;-86
2022/01/23 03:56:33;;;;;;;88.70;31.03;;;6.60;99.90;;;;;;5068407;28;20251;-87
2022/01/23 03:59:01;;;;;;;77.63;28.53;;;6.60;99.90;;;;;;5066030;28;20205;-86
2022/01/23 04:01:28;;;;;;;92.63;31.73;;;6.60;99.90;;;;;;5067596;28;20264;-86
2022/01/23 04:04:01;;;;;;;88.60;30.87;;;6.60;99.90;;;;;;5067836;28;20227;-87
2022/01/23 04:06:28;;;;;;;106.30;33.93;;;6.70;99.90;;;;;;5068134;28;20243;-88
2022/01/23 04:08:54;;;;;;;105.70;33.23;;;7.40;99.90;;;;;;5068808;28;20220;-87
2022/01/23 04:11:21;;;;;;;88.33;30.60;;;6.70;99.90;;;;;;5069333;28;20203;-87
2022/01/23 04:13:54;;;;;;;88.10;30.67;;;6.70;99.90;;;;;;5090592;28;20185;-84
2022/01/23 04:19:18;;;;;;;93.70;31.20;;;;;;;;;;5064635;28;20215;-85
2022/01/23 04:45:11;;;;;;;88.43;30.77;;;6.70;99.90;;;;;;5053715;28;20215;-86
2022/01/23 04:47:23;;;;;;;87.63;30.03;;;6.80;99.90;;;;;;5065839;28;20910;-86
2022/01/23 05:00:52;;;;;;;91.77;31.17;;;6.80;99.90;;;;;;5066264;28;20221;-86
2022/01/23 05:06:23;;;;;;;90.63;29.70;;;;;;;;;;5068910;28;20228;-87
2022/01/23 05:09:09;;;;;;;94.23;31.37;;;;;;;;;;5066931;28;20311;-86
2022/01/23 05:11:48;;;;;;;82.90;29.10;;;6.80;99.90;;;;;;5067736;28;20244;-87
2022/01/23 05:14:28;;;;;;;82.23;30.10;;;6.80;99.90;;;;;;5066472;28;20243;-86
2022/01/23 05:16:55;;;;;;;85.30;28.83;;;6.80;99.90;;;;;;5066122;28;20237;-86
2022/01/23 05:19:22;;;;;;;91.60;29.27;;;6.80;99.90;;;;;;5086404;28;20193;-85
2022/01/23 05:24:36;;;;;;;89.07;30.07;;;6.80;99.90;;;;;;5067460;28;20204;-86
2022/01/23 05:27:07;;;;;;;87.83;29.77;;;6.60;99.90;;;;;;5066448;28;20498;-86
2022/01/23 05:29:34;;;;;;;99.60;32.20;;;6.60;99.90;;;;;;5066480;28;20868;-86
2022/01/23 05:32:02;;;;;;;103.50;32.93;;;6.60;99.90;;;;;;5067637;28;20308;-86
2022/01/23 05:34:29;;;;;;;88.97;29.27;;;6.50;99.90;;;;;;5065819;28;20210;-86
2022/01/23 05:37:05;;;;;;;93.50;31.17;;;3.90;99.90;;;;;;5064189;28;20858;-87
2022/01/23 05:39:34;;;;;;;87.67;30.07;;;6.50;99.90;;;;;;5066831;28;20923;-86
2022/01/23 05:42:07;;;;;;;96.80;32.27;;;7.50;99.90;;;;;;5065603;28;20350;-87
2022/01/23 05:44:36;;;;;;;91.17;29.67;;;6.60;99.90;;;;;;5066984;28;20241;-87
2022/01/23 05:47:04;;;;;;;93.63;29.93;;;6.50;99.90;;;;;;5066452;28;20247;-87
2022/01/23 05:49:44;;;;;;;83.83;29.17;;;6.50;99.90;;;;;;5066737;28;20209;-85
2022/01/23 05:52:38;;;;;;;111.40;35.50;;;6.50;99.90;;;;;;5064433;28;20240;-86
2022/01/23 05:55:38;;;;;;;97.87;32.17;;;6.50;99.90;;;;;;5067000;28;20232;-87
2022/01/23 05:58:10;;;;;;;96.20;31.90;;;6.50;99.90;;;;;;5069761;28;20211;-87
2022/01/23 06:00:44;;;;;;;86.77;29.73;;;6.50;99.90;;;;;;5066752;28;20248;-87
2022/01/23 06:03:16;;;;;;;87.80;30.53;;;6.60;99.90;;;;;;5077842;28;20330;-85
2022/01/23 06:06:00;;;;;;;98.67;32.03;;;6.60;99.90;;;;;;5074590;28;20312;-88
2022/01/23 06:08:30;;;;;;;99.17;32.47;;;6.60;99.90;;;;;;5067565;28;20233;-87
2022/01/23 06:10:58;;;;;;;89.73;30.90;;;6.60;99.90;;;;;;5067147;28;20292;-88
2022/01/23 06:13:34;;;;;;;87.70;30.27;;;6.60;99.90;;;;;;5066250;28;20222;-88
2022/01/23 06:16:02;;;;;;;100.90;33.13;;;6.60;99.90;;;;;;5066018;28;20245;-86
2022/01/23 06:18:29;;;;;;;97.50;31.37;;;6.60;99.90;;;;;;5066775;28;20338;-87
2022/01/23 06:21:19;;;;;;;85.43;29.30;;;6.60;99.90;;;;;;5068633;28;20443;-87
2022/01/23 06:24:06;;;;;;;105.50;33.27;;;6.60;99.90;;;;;;5064108;28;20217;-86
2022/01/23 06:26:53;;;;;;;89.37;30.67;;;6.60;99.90;;;;;;5069334;28;20247;-87
2022/01/23 06:29:22;;;;;;;87.43;30.23;;;6.60;99.90;;;;;;5066812;28;20224;-86
2022/01/23 06:31:53;;;;;;;149.03;42.53;;;6.60;99.90;;;;;;5066400;28;20204;-87
2022/01/23 06:34:20;;;;;;;86.10;30.10;;;6.60;99.90;;;;;;5064574;28;20664;-86
2022/01/23 06:36:51;;;;;;;85.97;30.43;;;6.60;99.90;;;;;;5066123;28;20234;-87
2022/01/23 06:39:21;;;;;;;85.77;29.90;;;6.50;99.90;;;;;;5064910;28;20201;-87
2022/01/23 06:41:51;;;;;;;94.30;31.63;;;6.60;99.90;;;;;;5065642;28;20227;-86
2022/01/23 06:44:27;;;;;;;88.17;31.23;;;6.70;99.90;;;;;;5065236;28;20208;-85
2022/01/23 06:46:55;;;;;;;98.63;33.13;;;6.70;99.90;;;;;;5068688;28;20304;-87
2022/01/23 06:49:23;;;;;;;81.13;29.70;;;6.60;99.90;;;;;;5058928;28;20249;-85
2022/01/23 06:51:51;;;;;;;84.73;29.03;;;6.60;99.90;;;;;;5067620;28;20280;-86
2022/01/23 06:54:20;;;;;;;90.73;30.17;;;6.60;99.90;;;;;;5064862;28;20577;-87
2022/01/23 06:56:47;;;;;;;101.37;32.47;;;6.60;99.90;;;;;;5066238;28;20236;-87
2022/01/23 06:59:15;;;;;;;101.57;33.10;;;6.50;99.90;;;;;;5064135;28;20253;-87
2022/01/23 07:01:46;;;;;;;100.20;32.43;;;6.50;99.90;;;;;;5064370;28;20228;-87
2022/01/23 07:04:27;;;;;;;91.47;32.13;;;6.50;99.90;;;;;;5062491;28;20722;-86
2022/01/23 07:07:02;;;;;;;94.43;32.17;;;6.50;99.90;;;;;;5063837;28;20255;-87
2022/01/23 07:09:50;;;;;;;92.93;31.03;;;6.60;99.90;;;;;;5046317;28;20320;-87
2022/01/23 07:12:36;;;;;;;123.33;37.57;;;6.80;99.90;;;;;;5068763;28;20213;-89
2022/01/23 07:15:07;;;;;;;104.10;33.93;;;6.60;99.90;;;;;;5068337;28;20240;-89
2022/01/23 07:18:06;;;;;;;105.57;33.70;;;6.70;99.90;;;;;;5066831;28;20810;-89
2022/01/23 07:20:37;;;;;;;98.77;33.43;;;6.70;99.90;;;;;;5059133;28;20221;-88
2022/01/23 07:23:22;;;;;;;108.27;35.90;;;6.70;99.90;;;;;;5067645;28;20648;-87
2022/01/23 07:25:52;;;;;;;93.73;32.00;;;6.80;99.90;;;;;;5071299;28;20217;-89
2022/01/23 07:28:23;;;;;;;89.93;32.47;;;6.80;99.90;;;;;;5071598;28;20213;-90
2022/01/23 07:31:09;;;;;;;69.70;27.07;;;7.10;99.90;;;;;;5085272;28;20207;-89
2022/01/23 07:33:36;;;;;;;82.33;29.83;;;6.80;99.90;;;;;;5094158;28;20238;-90
2022/01/23 07:36:05;;;;;;;84.27;30.40;;;6.80;99.90;;;;;;5080603;28;20230;-91
2022/01/23 07:38:33;;;;;;;96.23;34.87;;;6.80;99.90;;;;;;5072192;28;20216;-90
2022/01/23 07:41:11;;;;;;;88.93;31.87;;;6.80;99.90;;;;;;5071993;28;20842;-89
2022/01/23 07:43:59;;;;;;;88.30;31.63;;;6.90;99.90;;;;;;5066173;28;20205;-89
2022/01/23 07:46:51;;;;;;;85.53;31.53;;;;;;;;;;5052684;28;20254;-87
2022/01/23 07:49:41;;;;;;;90.60;31.90;;;6.90;99.90;;;;;;5083084;28;20256;-92
2022/01/23 07:52:20;;;;;;;94.30;33.63;;;6.90;99.90;;;;;;5083758;28;20640;-92
2022/01/23 07:55:09;;;;;;;72.87;29.17;;;7.00;99.90;;;;;;5095245;28;20450;-88
2022/01/23 07:57:42;;;;;;;86.73;31.53;;;7.00;99.90;;;;;;5095748;28;20275;-89
2022/01/23 08:00:37;;;;;;;92.87;33.37;;;7.00;99.90;;;;;;5091399;28;20235;-89
2022/01/23 08:03:06;;;;;;;88.37;32.13;;;7.00;99.90;;;;;;5075527;28;20234;-86
2022/01/23 08:05:53;;;;;;;109.97;36.13;;;7.00;99.90;;;;;;5072094;28;20200;-86
2022/01/23 08:08:40;;;;;;;96.00;33.57;;;7.00;99.90;;;;;;5070412;28;20710;-89
2022/01/23 08:11:08;;;;;;;91.50;32.63;;;7.00;99.90;;;;;;5070006;28;20216;-87
2022/01/23 08:13:36;;;;;;;92.70;32.50;;;7.00;99.90;;;;;;5070140;28;20216;-88
2022/01/23 08:16:04;;;;;;;88.27;32.07;;;7.00;99.90;;;;;;5072698;28;20224;-88
2022/01/23 08:18:30;;;;;;;103.67;34.17;;;7.00;99.90;;;;;;5070517;28;20576;-86
2022/01/23 08:20:57;;;;;;;87.87;32.93;;;7.00;99.90;;;;;;5071094;28;20212;-88
2022/01/23 08:23:24;;;;;;;101.27;33.57;;;7.10;99.90;;;;;;5071110;28;20192;-87
2022/01/23 08:25:53;;;;;;;101.80;33.33;;;7.10;99.90;;;;;;5072582;28;20200;-87
2022/01/23 08:28:19;;;;;;;84.10;32.23;;;7.20;99.90;;;;;;5086362;28;20562;-88
2022/01/23 08:30:48;;;;;;;91.33;34.70;;;7.20;99.90;;;;;;5082152;28;20212;-86
2022/01/23 08:33:15;;;;;;;104.30;37.90;;;7.20;99.90;;;;;;5070749;28;20227;-86
2022/01/23 08:35:43;;;;;;;111.33;37.37;;;7.20;99.90;;;;;;5070330;28;20203;-86
2022/01/23 08:38:13;;;;;;;92.37;33.70;;;7.30;99.90;;;;;;5071370;28;20204;-86
2022/01/23 08:40:58;;;;;;;94.47;34.60;;;7.30;99.90;;;;;;5071441;28;20232;-86
2022/01/23 08:43:25;;;;;;;94.03;32.17;;;7.30;99.90;;;;;;5066503;28;20228;-89
2022/01/23 08:45:54;;;;;;;94.57;34.13;;;7.40;99.90;;;;;;5070117;28;20225;-86
2022/01/23 08:48:21;;;;;;;86.27;33.50;;;7.40;99.90;;;;;;5079204;28;20207;-89
2022/01/23 08:50:49;;;;;;;93.40;33.30;;;7.40;99.90;;;;;;5071768;28;20604;-86
2022/01/23 08:53:16;;;;;;;80.63;31.57;;;7.40;99.90;;;;;;5072425;28;20197;-89
2022/01/23 08:55:42;;;;;;;101.60;35.13;;;7.40;99.90;;;;;;5079278;28;20206;-89
2022/01/23 08:58:09;;;;;;;92.00;33.77;;;7.40;99.90;;;;;;5090628;28;20208;-88
2022/01/23 09:00:36;;;;;;;86.17;32.37;;;7.40;99.90;;;;;;5086353;28;20205;-86
2022/01/23 09:03:05;;;;;;;67.43;29.53;;;7.50;99.90;;;;;;5097991;28;20395;-91
2022/01/23 09:05:32;;;;;;;88.47;32.20;;;7.50;99.90;;;;;;5096809;28;20187;-92
2022/01/23 09:08:03;;;;;;;85.53;32.37;;;;;;;;;;5094753;28;20239;-92
2022/01/23 09:10:40;;;;;;;77.47;30.33;;;;;;;;;;5094567;28;20216;-94
2022/01/23 09:13:30;;;;;;;87.93;32.33;;;;;;;;;;5093754;28;20204;-92
2022/01/23 09:15:59;;;;;;;87.07;33.63;;;;;;;;;;5094928;28;20225;-92
2022/01/23 09:18:28;;;;;;;92.70;31.97;;;;;;;;;;5094439;28;20196;-95
2022/01/23 09:20:56;;;;;;;91.37;32.60;;;;;;;;;;5092482;28;20201;-93
2022/01/23 09:23:24;;;;;;;83.40;32.83;;;;;;;;;;5090503;28;20210;-94
2022/01/23 09:26:00;;;;;;;86.53;32.90;;;7.50;99.90;;;;;;5086067;28;20197;-89
2022/01/23 09:28:32;;;;;;;84.87;32.83;;;;;;;;;;5081601;28;20200;-92
2022/01/23 09:31:00;;;;;;;91.77;33.93;;;;;;;;;;5089968;28;20246;-94
2022/01/23 09:33:29;;;;;;;92.53;32.00;;;;;;;;;;5089328;28;20202;-95
2022/01/23 09:35:57;;;;;;;79.90;33.20;;;;;;;;;;5095647;28;20210;-96
2022/01/23 09:38:24;;;;;;;78.03;31.30;;;;;;;;;;5096562;28;20220;-96
2022/01/23 09:40:58;;;;;;;80.77;31.17;;;7.60;99.90;;;;;;5096823;28;20190;-96
2022/01/23 09:43:26;;;;;;;81.90;31.43;;;7.60;99.90;;;;;;5096912;28;20198;-92
2022/01/23 09:45:55;;;;;;;74.30;30.03;;;7.70;99.90;;;;;;5097195;28;20192;-95
2022/01/23 09:48:23;;;;;;;77.17;30.57;;;;;;;;;;5097649;28;20227;-92
2022/01/23 09:50:54;;;;;;;85.57;32.23;;;;;;;;;;5097298;28;20224;-91
2022/01/23 09:53:23;;;;;;;88.63;32.40;;;7.80;99.90;;;;;;5097513;28;20185;-90
2022/01/23 09:55:55;;;;;;;73.73;31.07;;;7.80;99.90;;;;;;5096286;28;20251;-90
2022/01/23 09:58:47;;;;;;;73.50;30.00;;;7.90;99.90;;;;;;5083708;28;20204;-90
2022/01/23 10:01:14;;;;;;;75.73;31.70;;;7.90;99.90;;;;;;5074756;28;20639;-89
2022/01/23 10:03:41;;;;;;;65.53;29.37;;;8.00;99.90;;;;;;5075311;28;20202;-90
2022/01/23 10:06:10;;;;;;;74.53;31.77;;;8.00;99.90;;;;;;5074029;28;20705;-90
2022/01/23 10:08:38;;;;;;;85.47;33.30;;;;;;;;;;5073958;28;20211;-90
2022/01/23 10:11:10;;;;;;;76.47;30.80;;;;;;;;;;5073523;28;20281;-90
2022/01/23 10:13:38;;;;;;;81.50;31.40;;;;;;;;;;5072314;28;20197;-90
2022/01/23 10:16:07;;;;;;;83.83;32.47;;;;;;;;;;5072564;28;20258;-90
2022/01/23 10:18:35;;;;;;;77.63;31.40;;;;;;;;;;5072827;28;20292;-90
2022/01/23 10:21:05;;;;;;;81.03;32.53;;;;;;;;;;5072797;28;20201;-92
2022/01/23 10:23:36;;;;;;;79.50;31.93;;;;;;;;;;5075100;28;20209;-89
2022/01/23 10:26:10;;;;;;;76.20;31.27;;;8.40;99.90;;;;;;5073256;28;20279;-91
2022/01/23 10:28:41;;;;;;;82.70;32.70;;;;;;;;;;5073661;28;20716;-89
2022/01/23 10:31:12;;;;;;;91.90;33.97;;;;;;;;;;5059606;28;20681;-88
2022/01/23 10:33:40;;;;;;;89.07;33.87;;;8.50;99.90;;;;;;5074988;28;20212;-89
2022/01/23 10:36:08;;;;;;;94.03;34.50;;;8.60;99.90;;;;;;5079067;28;20277;-89
2022/01/23 10:38:52;;;;;;;80.10;32.37;;;8.60;99.90;;;;;;5086061;28;20197;-90
2022/01/23 10:41:43;;;;;;;78.60;32.23;;;8.60;99.90;;;;;;5091036;28;20194;-88
2022/01/23 10:49:59;;;;;;;88.23;32.97;;;8.80;99.90;;;;;;5046587;28;20221;-87
2022/01/23 10:52:28;;;;;;;85.10;33.43;;;8.80;99.90;;;;;;5071529;28;20261;-89
2022/01/23 10:55:01;;;;;;;68.07;29.33;;;8.90;99.90;;;;;;5092919;28;20244;-86
2022/01/23 10:57:35;;;;;;;89.73;33.87;;;8.90;99.90;;;;;;5068872;28;20238;-87
2022/01/23 11:00:05;;;;;;;87.43;32.60;;;8.90;99.90;;;;;;5069881;28;20208;-88
2022/01/23 11:02:32;;;;;;;88.40;33.57;;;8.90;99.90;;;;;;5068222;28;20206;-88
2022/01/23 11:05:02;;;;;;;90.13;34.83;;;8.90;99.90;;;;;;5067077;28;20281;-89
2022/01/23 11:07:30;;;;;;;96.00;33.63;;;8.90;99.90;;;;;;5068115;28;20773;-88
2022/01/23 11:10:02;;;;;;;98.80;35.33;;;8.90;99.90;;;;;;5064945;28;20297;-88
2022/01/23 11:17:21;;;;;;;86.57;33.97;;;9.00;99.90;;;;;;5068937;28;20215;-88
2022/01/23 11:18:33;;;;;;;83.93;32.47;;;9.10;99.90;;;;;;5061715;28;20343;-88
2022/01/23 11:21:00;;;;;;;86.83;33.30;;;;;;;;;;5067813;28;20221;-88
2022/01/23 11:23:30;;;;;;;96.10;34.67;;;9.20;99.90;;;;;;5069645;28;20215;-88
2022/01/23 11:26:13;;;;;;;95.60;33.63;;;9.30;99.90;;;;;;5069775;28;20342;-89
2022/01/23 11:28:51;;;;;;;92.20;33.93;;;9.30;99.90;;;;;;5067961;28;20229;-89
2022/01/23 11:31:22;;;;;;;85.33;33.03;;;9.30;99.90;;;;;;5067235;28;20235;-87
2022/01/23 11:33:50;;;;;;;83.23;31.77;;;9.40;99.90;;;;;;5075965;28;20213;-87
2022/01/23 11:36:20;;;;;;;79.67;32.17;;;9.40;99.90;;;;;;5073197;28;20250;-88
2022/01/23 11:38:50;;;;;;;87.13;32.73;;;;;;;;;;5072578;28;20218;-88
2022/01/23 11:55:08;;;;;;;83.57;32.77;;;9.40;99.90;;;;;;5084059;28;20966;-90
2022/01/23 11:57:45;;;;;;;88.50;34.17;;;9.50;99.90;;;;;;5083132;28;20237;-89
2022/01/23 12:00:19;;;;;;;90.03;33.53;;;10.10;99.90;;;;;;5080699;28;20263;-87
2022/01/23 12:03:11;;;;;;;90.93;33.90;;;9.50;99.90;;;;;;5087044;28;20198;-89
2022/01/23 12:05:42;;;;;;;78.00;31.60;;;;;;;;;;5091011;28;20654;-87
2022/01/23 12:08:33;;;;;;;87.87;33.57;;;9.50;99.90;;;;;;5081626;28;20216;-89
2022/01/23 12:17:40;;;;;;;87.47;33.97;;;9.40;99.90;;;;;;5083530;28;20663;-87
2022/01/23 12:20:09;;;;;;;90.70;34.57;;;9.40;99.90;;;;;;5090020;28;20212;-87
2022/01/23 12:22:42;;;;;;;88.80;34.53;;;9.30;99.90;;;;;;5072310;28;20214;-87
2022/01/23 12:25:13;;;;;;;89.23;34.13;;;10.50;99.90;;;;;;5072189;28;20214;-87
2022/01/23 12:27:40;;;;;;;80.47;32.30;;;9.50;99.90;;;;;;5066225;28;20223;-87
2022/01/23 12:30:41;;;;;;;82.10;34.10;;;9.50;99.90;;;;;;5072921;28;20227;-86
2022/01/23 12:33:30;;;;;;;90.40;34.13;;;9.50;99.90;;;;;;5068389;28;20228;-86
2022/01/23 12:36:05;;;;;;;102.03;36.07;;;9.60;99.90;;;;;;5067988;28;20250;-88
2022/01/23 12:38:38;;;;;;;81.10;33.00;;;9.60;99.90;;;;;;5068917;28;20641;-87
2022/01/23 12:41:29;;;;;;;82.27;30.27;;;9.60;99.90;;;;;;5075611;28;20214;-87
2022/01/23 12:43:59;;;;;;;97.70;36.50;;;9.50;99.90;;;;;;5071526;28;20247;-87
2022/01/23 12:46:35;;;;;;;98.30;37.70;;;9.40;99.90;;;;;;5068724;28;20238;-88
2022/01/23 12:49:24;;;;;;;83.43;33.50;;;9.40;99.90;;;;;;5070556;28;20586;-88
2022/01/23 12:51:53;;;;;;;90.30;33.10;;;9.40;99.90;;;;;;5071480;28;20745;-87
2022/01/23 12:54:25;;;;;;;98.90;34.90;;;9.30;99.90;;;;;;5068083;28;20912;-88
2022/01/23 12:56:53;;;;;;;94.57;36.77;;;9.30;99.90;;;;;;5070207;28;20232;-87
2022/01/23 12:59:28;;;;;;;90.93;34.40;;;9.40;99.90;;;;;;5068085;28;20211;-90
2022/01/23 13:02:06;;;;;;;97.97;37.03;;;9.50;99.90;;;;;;5065789;28;20222;-89
2022/01/23 13:04:41;;;;;;;98.27;36.60;;;9.50;99.90;;;;;;5074765;28;20242;-89
2022/01/23 13:07:25;;;;;;;105.97;36.67;;;9.50;99.90;;;;;;5064669;28;20263;-89
2022/01/23 13:09:59;;;;;;;97.63;34.67;;;9.60;99.90;;;;;;5064475;28;20855;-89
2022/01/23 13:12:43;;;;;;;94.47;33.77;;;9.50;99.90;;;;;;5069672;28;20208;-88
2022/01/23 13:15:27;;;;;;;86.90;32.47;;;9.30;99.90;;;;;;5064087;28;20515;-88
2022/01/23 13:18:08;;;;;;;82.07;33.33;;;9.30;99.90;;;;;;5068983;28;20298;-88
2022/01/23 13:32:12;;;;;;;91.73;34.83;;;9.90;99.90;;;;;;5066956;28;20659;-88
2022/01/23 13:34:41;;;;;;;99.63;34.83;;;9.20;99.90;;;;;;5071866;28;20275;-88
2022/01/23 13:37:11;;;;;;;92.80;32.70;;;9.20;99.90;;;;;;5067362;28;20724;-88
2022/01/23 13:39:44;;;;;;;92.83;32.60;;;9.20;99.90;;;;;;5066431;28;20203;-88
2022/01/23 13:42:47;;;;;;;80.87;32.40;;;9.20;99.90;;;;;;5068597;28;20216;-88
2022/01/23 13:48:28;;;;;;;93.27;34.80;;;9.20;99.90;;;;;;5066626;28;20236;-88
2022/01/23 13:59:24;;;;;;;73.50;29.60;;;9.20;99.90;;;;;;5087557;28;20211;-88
2022/01/23 14:01:56;;;;;;;83.07;30.67;;;9.20;99.90;;;;;;5068990;28;20207;-88
2022/01/23 14:04:25;;;;;;;82.97;31.43;;;9.10;99.90;;;;;;5067108;28;20675;-89
2022/01/23 14:06:53;;;;;;;84.30;31.90;;;9.10;99.90;;;;;;5068401;28;20231;-88
2022/01/23 14:09:23;;;;;;;86.50;30.50;;;9.10;99.90;;;;;;5068872;28;20211;-89
2022/01/23 14:11:51;;;;;;;87.70;29.77;;;9.10;99.90;;;;;;5063078;28;20222;-89
2022/01/23 14:14:20;;;;;;;88.83;29.63;;;9.10;99.90;;;;;;5067136;28;20269;-88
2022/01/23 14:16:51;;;;;;;84.13;30.57;;;9.10;99.90;;;;;;5067550;28;20235;-89
2022/01/23 14:19:22;;;;;;;79.87;29.33;;;9.10;99.90;;;;;;5067916;28;20215;-89
2022/01/23 14:21:52;;;;;;;76.80;27.73;;;9.20;99.90;;;;;;5067419;28;20290;-89
2022/01/23 14:24:28;;;;;;;82.77;30.43;;;9.10;99.90;;;;;;5066129;28;20220;-88
2022/01/23 14:27:06;;;;;;;98.23;33.10;;;9.20;99.90;;;;;;5065373;28;20712;-88
2022/01/23 14:29:46;;;;;;;100.03;33.57;;;9.10;99.90;;;;;;5063613;28;20652;-89
2022/01/23 14:32:23;;;;;;;98.03;32.73;;;9.10;99.90;;;;;;5063962;28;20221;-88
2022/01/23 14:34:51;;;;;;;82.93;29.93;;;9.10;99.90;;;;;;5085463;28;20718;-89
2022/01/23 14:37:26;;;;;;;81.13;30.07;;;9.10;99.90;;;;;;5067915;28;20798;-89
2022/01/23 14:40:10;;;;;;;91.27;31.30;;;9.10;99.90;;;;;;5070991;28;20670;-89
2022/01/23 14:42:37;;;;;;;97.77;33.13;;;7.70;99.90;;;;;;5067819;28;20277;-88
2022/01/23 14:45:06;;;;;;;84.63;30.43;;;9.10;99.90;;;;;;5069208;28;20210;-88
2022/01/23 14:47:37;;;;;;;92.77;32.40;;;9.10;99.90;;;;;;5068769;28;20243;-87
2022/01/23 14:50:07;;;;;;;85.27;30.67;;;9.00;99.90;;;;;;5070059;28;20206;-88
2022/01/23 14:52:34;;;;;;;70.57;26.10;;;9.00;99.90;;;;;;5071277;28;20290;-88
2022/01/23 14:55:03;;;;;;;87.00;28.60;;;8.90;99.90;;;;;;5073798;28;20186;-89
2022/01/23 14:57:34;;;;;;;78.57;27.03;;;8.80;99.90;;;;;;5082927;28;20307;-87
2022/01/23 15:00:01;;;;;;;75.97;29.30;;;8.70;99.90;;;;;;5075276;28;20197;-87
2022/01/23 15:02:28;;;;;;;82.07;29.00;;;8.60;99.90;;;;;;5071205;28;20213;-88
2022/01/23 15:04:56;;;;;;;87.20;30.43;;;8.60;99.90;;;;;;5068195;28;20318;-88
2022/01/23 15:07:23;;;;;;;70.97;26.93;;;8.60;99.90;;;;;;5089712;28;20220;-88
2022/01/23 15:09:52;;;;;;;72.07;27.83;;;8.50;99.90;;;;;;5086772;28;20212;-88
2022/01/23 15:12:19;;;;;;;85.40;28.83;;;8.50;99.90;;;;;;5078455;28;21066;-88
2022/01/23 15:14:47;;;;;;;87.23;26.70;;;8.50;99.90;;;;;;5077500;28;20205;-87
2022/01/23 15:17:14;;;;;;;90.17;30.53;;;8.50;99.90;;;;;;5075759;28;20236;-86
2022/01/23 15:19:41;;;;;;;80.40;28.43;;;8.40;99.90;;;;;;5070941;28;20212;-86
2022/01/23 15:22:08;;;;;;;80.93;27.33;;;8.30;99.90;;;;;;5073850;28;20231;-88
2022/01/23 15:24:35;;;;;;;90.60;30.43;;;8.30;99.90;;;;;;5074405;28;20204;-87
2022/01/23 15:27:02;;;;;;;89.77;30.67;;;7.90;99.90;;;;;;5074383;28;20228;-86
2022/01/23 15:29:29;;;;;;;88.67;31.97;;;8.30;99.90;;;;;;5072170;28;20780;-85
2022/01/23 15:31:57;;;;;;;111.37;35.03;;;;;;;;;;5076981;28;20231;-87
2022/01/23 15:34:24;;;;;;;92.93;31.50;;;8.30;99.90;;;;;;5087228;28;20215;-86
2022/01/23 15:36:53;;;;;;;94.77;31.70;;;8.20;99.90;;;;;;5086631;28;20239;-85
2022/01/23 15:39:21;;;;;;;98.30;31.53;;;8.00;99.90;;;;;;5090695;28;20211;-84
2022/01/23 15:41:48;;;;;;;82.40;30.47;;;8.00;99.90;;;;;;5096354;28;20279;-86
2022/01/23 15:44:15;;;;;;;92.33;32.00;;;8.00;99.90;;;;;;5079180;28;20245;-87
2022/01/23 15:46:43;;;;;;;96.93;32.30;;;7.90;99.90;;;;;;5070651;28;20314;-87
2022/01/23 15:49:13;;;;;;;92.33;31.40;;;7.90;99.90;;;;;;5074670;28;20205;-85
2022/01/23 15:51:40;;;;;;;94.23;32.10;;;7.80;99.90;;;;;;5071597;28;20367;-87
2022/01/23 15:54:07;;;;;;;106.43;34.43;;;7.90;99.90;;;;;;5072258;28;20209;-86
2022/01/23 15:56:34;;;;;;;98.30;34.57;;;;;;;;;;5069781;28;20229;-86
2022/01/23 15:59:01;;;;;;;96.47;32.97;;;7.90;99.90;;;;;;5074919;28;20205;-86
2022/01/23 16:01:29;;;;;;;110.93;35.67;;;;;;;;;;5074290;28;20231;-86
2022/01/23 16:03:56;;;;;;;94.20;32.57;;;7.80;99.90;;;;;;5071890;28;20363;-86
2022/01/23 16:06:24;;;;;;;99.83;33.60;;;5.60;99.90;;;;;;5069955;28;20220;-88